Aviation Digital Data Service (ADDS)

Output produced by METARs form (1748 UTC 31 July 2021)
found at http://www.aviationweather.gov/metar/data/
 
METAR text: LFMH 311730Z AUTO 02004KT 350V050 9999 RA FEW018/// BKN042/// BKN054/// ///CB 13/11 Q1014
Conditions at: LFMH (ST ETIENNE/BOUTH, FR) observed 1730 UTC 31 July 2021
Temperature: 13.0°C (55°F)
Dewpoint: 11.0°C (52°F) [RH = 88%]
Pressure (altimeter): 29.94 inches Hg (1014.0 mb)
Winds: from the NNE (20 degrees) at 5 MPH (4 knots; 2.1 m/s)
Visibility: 6 or more miles (10+ km)
Ceiling: 4200 feet AGL
Clouds: few clouds at 1800 feet AGL
broken clouds at 4200 feet AGL
broken clouds at 5400 feet AGL
Weather: RA  (moderate rain)